Snow/Ice From: 16-12-2017 16:00 Until: 17-12-2017 16:00 warning for: Snow/Ice Level: Yellow info button

Although rather usual in this region, locally or potentially dangerous phenomena are expected. (such as local winds, summer thunderstorms, rising streams or high waves) Be aware and pay attention to the latest weather updates, especially if you carry out activities exposed to weather or close to a stream or shoreline. 


Meteo18 Weather Cam more information Meteo18 Weather Cam


Thunder radar more information blitzortung!


warning for Snow/Ice more information rain snow radar


Visit our other weather sites:

Template documentation
and downloads

And another site



Weather Underground History page Text

Daily Summary for May 31, 2017 Units:  Both    English   Metric
« Previous Day
Next Day »
Daily Weekly Monthly Yearly Custom
  High: Low: Average:
Temperature: 73.6 °F /  23.1 °C 57.9 °F /  14.4 °C 65.7 °F /  18.7 °C
Dew Point: 62.4 °F /  16.9 °C 54.3 °F /  12.4 °C 58.3 °F /  14.6 °C
Humidity: 88 % 61 % 78 %
Wind Speed: 12 mph /  19.3 km/h - 3 mph /  4.9 km/h
Wind Gust: 15 mph /  24.1 km/h - -
Wind:- - ESE
Pressure: 30.2 in /  1022.9 hPa 30.1 in /  1020.5 hPa -
Precipitation: 0.02 in /  0.5 mm    
Historical Graphs
 
 
Tabular Data for May 31, 2017
Time Temperature Dew Point Pressure Wind Wind Speed Wind Gust Humidity Rainfall Rate (Hourly)
00:02 63.3 °F /  17.4 °C 57 °F /  13.9 °C 30.2 in /  1021.6 hPa North 1 mph /  1.6 km/h 3 mph /  4.8 km/h 80 % 0 in /  0.0 mm
00:12 63.1 °F /  17.3 °C 56.8 °F /  13.8 °C 30.2 in /  1021.6 hPa NW 1 mph /  1.6 km/h 3 mph /  4.8 km/h 80 % 0 in /  0.0 mm
00:17 63.1 °F /  17.3 °C 56.8 °F /  13.8 °C 30.2 in /  1021.6 hPa NW 1 mph /  1.6 km/h 3 mph /  4.8 km/h 80 % 0 in /  0.0 mm
00:22 63.1 °F /  17.3 °C 56.8 °F /  13.8 °C 30.2 in /  1021.6 hPa North 2 mph /  3.2 km/h 3 mph /  4.8 km/h 80 % 0 in /  0.0 mm
00:32 62.8 °F /  17.1 °C 56.5 °F /  13.6 °C 30.2 in /  1021.6 hPa North 1 mph /  1.6 km/h 4 mph /  6.4 km/h 80 % 0 in /  0.0 mm
00:42 62.6 °F /  17.0 °C 56.3 °F /  13.5 °C 30.2 in /  1021.6 hPa North 2 mph /  3.2 km/h 4 mph /  6.4 km/h 80 % 0 in /  0.0 mm
00:52 62.4 °F /  16.9 °C 56.1 °F /  13.4 °C 30.2 in /  1021.6 hPa NNW 1 mph /  1.6 km/h 4 mph /  6.4 km/h 80 % 0 in /  0.0 mm
00:57 62.4 °F /  16.9 °C 56.1 °F /  13.4 °C 30.2 in /  1021.6 hPa NNE 3 mph /  4.8 km/h 4 mph /  6.4 km/h 80 % 0 in /  0.0 mm
01:02 62.4 °F /  16.9 °C 56.1 °F /  13.4 °C 30.2 in /  1021.6 hPa North 1 mph /  1.6 km/h 4 mph /  6.4 km/h 80 % 0 in /  0.0 mm
01:07 62.2 °F /  16.8 °C 55.9 °F /  13.3 °C 30.2 in /  1021.6 hPa Calm   4 mph /  6.4 km/h 80 % 0 in /  0.0 mm
01:12 62.2 °F /  16.8 °C 55.9 °F /  13.3 °C 30.2 in /  1021.6 hPa NNW 4 mph /  6.4 km/h 4 mph /  6.4 km/h 80 % 0 in /  0.0 mm
01:17 62.1 °F /  16.7 °C 55.8 °F /  13.2 °C 30.2 in /  1021.6 hPa NNE 4 mph /  6.4 km/h 5 mph /  8.0 km/h 80 % 0 in /  0.0 mm
01:22 62.1 °F /  16.7 °C 55.8 °F /  13.2 °C 30.2 in /  1021.6 hPa North 6 mph /  9.7 km/h 6 mph /  9.7 km/h 80 % 0 in /  0.0 mm
01:32 61.9 °F /  16.6 °C 55.6 °F /  13.1 °C 30.2 in /  1021.6 hPa NW 1 mph /  1.6 km/h 6 mph /  9.7 km/h 80 % 0 in /  0.0 mm
01:42 61.5 °F /  16.4 °C 55.6 °F /  13.1 °C 30.2 in /  1021.6 hPa NNW 1 mph /  1.6 km/h 6 mph /  9.7 km/h 81 % 0 in /  0.0 mm
01:47 61.5 °F /  16.4 °C 55.6 °F /  13.1 °C 30.2 in /  1021.6 hPa NNE 2 mph /  3.2 km/h 4 mph /  6.4 km/h 81 % 0 in /  0.0 mm
01:52 61.5 °F /  16.4 °C 55.6 °F /  13.1 °C 30.2 in /  1021.6 hPa Calm   5 mph /  8.0 km/h 81 % 0 in /  0.0 mm
01:57 61.5 °F /  16.4 °C 55.6 °F /  13.1 °C 30.2 in /  1021.6 hPa North 1 mph /  1.6 km/h 7 mph /  11.3 km/h 81 % 0 in /  0.0 mm
02:02 61.7 °F /  16.5 °C 55.8 °F /  13.2 °C 30.2 in /  1021.6 hPa Calm   7 mph /  11.3 km/h 81 % 0 in /  0.0 mm
02:07 61.9 °F /  16.6 °C 55.9 °F /  13.3 °C 30.2 in /  1021.6 hPa NW 1 mph /  1.6 km/h 5 mph /  8.0 km/h 81 % 0 in /  0.0 mm
02:12 61.9 °F /  16.6 °C 55.9 °F /  13.3 °C 30.2 in /  1021.6 hPa NNW 1 mph /  1.6 km/h 5 mph /  8.0 km/h 81 % 0 in /  0.0 mm
02:22 61.9 °F /  16.6 °C 55.9 °F /  13.3 °C 30.2 in /  1021.6 hPa North 2 mph /  3.2 km/h 3 mph /  4.8 km/h 81 % 0 in /  0.0 mm
02:27 61.9 °F /  16.6 °C 55.9 °F /  13.3 °C 30.2 in /  1021.6 hPa North 2 mph /  3.2 km/h 4 mph /  6.4 km/h 81 % 0 in /  0.0 mm
02:32 61.9 °F /  16.6 °C 55.9 °F /  13.3 °C 30.2 in /  1021.6 hPa NNW 1 mph /  1.6 km/h 4 mph /  6.4 km/h 81 % 0 in /  0.0 mm
02:42 61.7 °F /  16.5 °C 55.8 °F /  13.2 °C 30.2 in /  1021.9 hPa NNE 4 mph /  6.4 km/h 5 mph /  8.0 km/h 81 % 0 in /  0.0 mm
02:47 61.5 °F /  16.4 °C 55.9 °F /  13.3 °C 30.2 in /  1021.9 hPa NNE 3 mph /  4.8 km/h 8 mph /  12.9 km/h 82 % 0 in /  0.0 mm
02:52 61.5 °F /  16.4 °C 55.9 °F /  13.3 °C 30.2 in /  1021.9 hPa Calm   8 mph /  12.9 km/h 82 % 0 in /  0.0 mm
02:57 61.3 °F /  16.3 °C 56.1 °F /  13.4 °C 30.2 in /  1021.9 hPa ENE 1 mph /  1.6 km/h 6 mph /  9.7 km/h 83 % 0 in /  0.0 mm
03:02 61.3 °F /  16.3 °C 56.1 °F /  13.4 °C 30.2 in /  1021.9 hPa NE 2 mph /  3.2 km/h 7 mph /  11.3 km/h 83 % 0 in /  0.0 mm
03:12 61.2 °F /  16.2 °C 55.9 °F /  13.3 °C 30.2 in /  1021.9 hPa North 2 mph /  3.2 km/h 9 mph /  14.5 km/h 83 % 0 in /  0.0 mm
03:17 61.2 °F /  16.2 °C 56.3 °F /  13.5 °C 30.2 in /  1021.9 hPa North 3 mph /  4.8 km/h 9 mph /  14.5 km/h 84 % 0 in /  0.0 mm
03:22 60.8 °F /  16.0 °C 55.9 °F /  13.3 °C 30.2 in /  1021.9 hPa NE 1 mph /  1.6 km/h 9 mph /  14.5 km/h 84 % 0 in /  0.0 mm
03:27 60.6 °F /  15.9 °C 56.1 °F /  13.4 °C 30.2 in /  1021.9 hPa North 2 mph /  3.2 km/h 8 mph /  12.9 km/h 85 % 0 in /  0.0 mm
03:32 60.4 °F /  15.8 °C 55.9 °F /  13.3 °C 30.2 in /  1021.9 hPa NE 2 mph /  3.2 km/h 6 mph /  9.7 km/h 85 % 0 in /  0.0 mm
03:42 60.3 °F /  15.7 °C 56.1 °F /  13.4 °C 30.2 in /  1022.2 hPa North 4 mph /  6.4 km/h 6 mph /  9.7 km/h 86 % 0 in /  0.0 mm
03:47 60.1 °F /  15.6 °C 55.9 °F /  13.3 °C 30.2 in /  1022.2 hPa North 5 mph /  8.0 km/h 8 mph /  12.9 km/h 86 % 0 in /  0.0 mm
03:52 60.1 °F /  15.6 °C 55.9 °F /  13.3 °C 30.2 in /  1022.2 hPa NNW 1 mph /  1.6 km/h 8 mph /  12.9 km/h 86 % 0 in /  0.0 mm
03:57 60.1 °F /  15.6 °C 55.9 °F /  13.3 °C 30.2 in /  1022.2 hPa NNW 3 mph /  4.8 km/h 9 mph /  14.5 km/h 86 % 0 in /  0.0 mm
04:02 59.9 °F /  15.5 °C 55.8 °F /  13.2 °C 30.2 in /  1022.2 hPa North 4 mph /  6.4 km/h 9 mph /  14.5 km/h 86 % 0 in /  0.0 mm
04:12 59.9 °F /  15.5 °C 55.8 °F /  13.2 °C 30.2 in /  1022.2 hPa NW 3 mph /  4.8 km/h 9 mph /  14.5 km/h 86 % 0 in /  0.0 mm
04:17 59.9 °F /  15.5 °C 55.8 °F /  13.2 °C 30.2 in /  1022.2 hPa NNW 1 mph /  1.6 km/h 8 mph /  12.9 km/h 86 % 0 in /  0.0 mm
04:22 59.9 °F /  15.5 °C 55.8 °F /  13.2 °C 30.2 in /  1022.2 hPa NNE 1 mph /  1.6 km/h 6 mph /  9.7 km/h 86 % 0 in /  0.0 mm
04:32 59.7 °F /  15.4 °C 55.8 °F /  13.2 °C 30.2 in /  1022.2 hPa NNW 1 mph /  1.6 km/h 5 mph /  8.0 km/h 87 % 0 in /  0.0 mm
04:42 59.7 °F /  15.4 °C 55.6 °F /  13.1 °C 30.2 in /  1022.2 hPa NNE 2 mph /  3.2 km/h 6 mph /  9.7 km/h 86 % 0 in /  0.0 mm
04:47 59.5 °F /  15.3 °C 55.6 °F /  13.1 °C 30.2 in /  1022.2 hPa NNE 2 mph /  3.2 km/h 7 mph /  11.3 km/h 87 % 0 in /  0.0 mm
04:52 59.5 °F /  15.3 °C 55.6 °F /  13.1 °C 30.2 in /  1022.2 hPa NNW 2 mph /  3.2 km/h 7 mph /  11.3 km/h 87 % 0 in /  0.0 mm
04:57 59.4 °F /  15.2 °C 55.4 °F /  13.0 °C 30.2 in /  1022.2 hPa NE 3 mph /  4.8 km/h 7 mph /  11.3 km/h 87 % 0 in /  0.0 mm
05:12 59 °F /  15.0 °C 55.2 °F /  12.9 °C 30.2 in /  1022.2 hPa North 2 mph /  3.2 km/h 6 mph /  9.7 km/h 87 % 0 in /  0.0 mm
05:17 58.6 °F /  14.8 °C 54.9 °F /  12.7 °C 30.2 in /  1022.2 hPa NE 4 mph /  6.4 km/h 6 mph /  9.7 km/h 87 % 0 in /  0.0 mm
05:22 58.6 °F /  14.8 °C 55 °F /  12.8 °C 30.2 in /  1022.2 hPa NE 4 mph /  6.4 km/h 7 mph /  11.3 km/h 88 % 0 in /  0.0 mm
05:32 58.5 °F /  14.7 °C 54.7 °F /  12.6 °C 30.2 in /  1022.2 hPa NNW 3 mph /  4.8 km/h 8 mph /  12.9 km/h 87 % 0 in /  0.0 mm
05:42 58.5 °F /  14.7 °C 54.7 °F /  12.6 °C 30.2 in /  1022.2 hPa North 3 mph /  4.8 km/h 8 mph /  12.9 km/h 87 % 0 in /  0.0 mm
05:47 58.3 °F /  14.6 °C 54.5 °F /  12.5 °C 30.2 in /  1022.2 hPa NE 3 mph /  4.8 km/h 8 mph /  12.9 km/h 87 % 0 in /  0.0 mm
05:52 58.3 °F /  14.6 °C 54.5 °F /  12.5 °C 30.2 in /  1022.2 hPa North 4 mph /  6.4 km/h 8 mph /  12.9 km/h 87 % 0 in /  0.0 mm
05:57 58.3 °F /  14.6 °C 54.5 °F /  12.5 °C 30.2 in /  1022.2 hPa NNE 2 mph /  3.2 km/h 8 mph /  12.9 km/h 87 % 0 in /  0.0 mm
06:02 58.3 °F /  14.6 °C 54.5 °F /  12.5 °C 30.2 in /  1022.2 hPa East 3 mph /  4.8 km/h 9 mph /  14.5 km/h 87 % 0 in /  0.0 mm
06:07 58.3 °F /  14.6 °C 54.5 °F /  12.5 °C 30.2 in /  1022.2 hPa NNE 5 mph /  8.0 km/h 9 mph /  14.5 km/h 87 % 0 in /  0.0 mm
06:17 58.1 °F /  14.5 °C 54.5 °F /  12.5 °C 30.2 in /  1022.2 hPa NE 3 mph /  4.8 km/h 7 mph /  11.3 km/h 88 % 0 in /  0.0 mm
06:22 57.9 °F /  14.4 °C 54.3 °F /  12.4 °C 30.2 in /  1022.2 hPa NNW 3 mph /  4.8 km/h 7 mph /  11.3 km/h 88 % 0 in /  0.0 mm
06:32 58.1 °F /  14.5 °C 54.5 °F /  12.5 °C 30.2 in /  1022.2 hPa North 4 mph /  6.4 km/h 8 mph /  12.9 km/h 88 % 0 in /  0.0 mm
06:37 58.3 °F /  14.6 °C 54.7 °F /  12.6 °C 30.2 in /  1022.2 hPa NE 5 mph /  8.0 km/h 8 mph /  12.9 km/h 88 % 0 in /  0.0 mm
06:42 58.5 °F /  14.7 °C 54.7 °F /  12.6 °C 30.2 in /  1022.2 hPa Calm   9 mph /  14.5 km/h 87 % 0 in /  0.0 mm
06:47 58.6 °F /  14.8 °C 54.9 °F /  12.7 °C 30.2 in /  1022.2 hPa NE 5 mph /  8.0 km/h 9 mph /  14.5 km/h 87 % 0 in /  0.0 mm
06:57 58.8 °F /  14.9 °C 54.7 °F /  12.6 °C 30.2 in /  1022.2 hPa North 4 mph /  6.4 km/h 9 mph /  14.5 km/h 86 % 0 in /  0.0 mm
07:02 59 °F /  15.0 °C 54.9 °F /  12.7 °C 30.2 in /  1022.2 hPa North 3 mph /  4.8 km/h 9 mph /  14.5 km/h 86 % 0 in /  0.0 mm
07:12 59 °F /  15.0 °C 54.9 °F /  12.7 °C 30.2 in /  1022.6 hPa North 2 mph /  3.2 km/h 11 mph /  17.7 km/h 86 % 0 in /  0.0 mm
07:22 58.8 °F /  14.9 °C 54.7 °F /  12.6 °C 30.2 in /  1022.6 hPa North 6 mph /  9.7 km/h 9 mph /  14.5 km/h 86 % 0 in /  0.0 mm
07:32 59.2 °F /  15.1 °C 55 °F /  12.8 °C 30.2 in /  1022.6 hPa NNW 3 mph /  4.8 km/h 10 mph /  16.1 km/h 86 % 0 in /  0.0 mm
07:37 59.4 °F /  15.2 °C 55.2 °F /  12.9 °C 30.2 in /  1022.6 hPa NNE 4 mph /  6.4 km/h 10 mph /  16.1 km/h 86 % 0 in /  0.0 mm
07:42 59.7 °F /  15.4 °C 55.6 °F /  13.1 °C 30.2 in /  1022.6 hPa NE 10 mph /  16.1 km/h 10 mph /  16.1 km/h 86 % 0 in /  0.0 mm
07:52 60.4 °F /  15.8 °C 55.6 °F /  13.1 °C 30.2 in /  1022.6 hPa NNE 5 mph /  8.0 km/h 11 mph /  17.7 km/h 84 % 0 in /  0.0 mm
07:57 60.8 °F /  16.0 °C 55.9 °F /  13.3 °C 30.2 in /  1022.6 hPa NNE 6 mph /  9.7 km/h 11 mph /  17.7 km/h 84 % 0 in /  0.0 mm
08:02 61.2 °F /  16.2 °C 55.9 °F /  13.3 °C 30.2 in /  1022.9 hPa ENE 2 mph /  3.2 km/h 9 mph /  14.5 km/h 83 % 0 in /  0.0 mm
08:12 61.9 °F /  16.6 °C 55.9 °F /  13.3 °C 30.2 in /  1022.9 hPa ENE 2 mph /  3.2 km/h 9 mph /  14.5 km/h 81 % 0 in /  0.0 mm
08:17 62.1 °F /  16.7 °C 55.8 °F /  13.2 °C 30.2 in /  1022.9 hPa NNE 6 mph /  9.7 km/h 9 mph /  14.5 km/h 80 % 0 in /  0.0 mm
08:22 62.2 °F /  16.8 °C 55.9 °F /  13.3 °C 30.2 in /  1022.9 hPa North 3 mph /  4.8 km/h 10 mph /  16.1 km/h 80 % 0 in /  0.0 mm
08:32 62.8 °F /  17.1 °C 56.1 °F /  13.4 °C 30.2 in /  1022.9 hPa North 6 mph /  9.7 km/h 11 mph /  17.7 km/h 79 % 0 in /  0.0 mm
08:42 63.1 °F /  17.3 °C 56.5 °F /  13.6 °C 30.2 in /  1022.9 hPa NNE 8 mph /  12.9 km/h 11 mph /  17.7 km/h 79 % 0 in /  0.0 mm
08:52 63.1 °F /  17.3 °C 56.1 °F /  13.4 °C 30.2 in /  1022.9 hPa NE 4 mph /  6.4 km/h 11 mph /  17.7 km/h 78 % 0 in /  0.0 mm
09:02 63.1 °F /  17.3 °C 56.5 °F /  13.6 °C 30.2 in /  1022.9 hPa ENE 2 mph /  3.2 km/h 11 mph /  17.7 km/h 79 % 0 in /  0.0 mm
09:12 63.5 °F /  17.5 °C 56.8 °F /  13.8 °C 30.2 in /  1022.9 hPa NNW 2 mph /  3.2 km/h 10 mph /  16.1 km/h 79 % 0 in /  0.0 mm
09:17 64 °F /  17.8 °C 57 °F /  13.9 °C 30.2 in /  1022.9 hPa ENE 5 mph /  8.0 km/h 10 mph /  16.1 km/h 78 % 0 in /  0.0 mm
09:22 64.2 °F /  17.9 °C 57.2 °F /  14.0 °C 30.2 in /  1022.9 hPa NE 7 mph /  11.3 km/h 10 mph /  16.1 km/h 78 % 0 in /  0.0 mm
09:32 63.7 °F /  17.6 °C 56.7 °F /  13.7 °C 30.2 in /  1022.9 hPa NNE 6 mph /  9.7 km/h 12 mph /  19.3 km/h 78 % 0 in /  0.0 mm
09:42 64.6 °F /  18.1 °C 57.9 °F /  14.4 °C 30.2 in /  1022.9 hPa NNE 6 mph /  9.7 km/h 12 mph /  19.3 km/h 79 % 0 in /  0.0 mm
09:47 64.8 °F /  18.2 °C 57.4 °F /  14.1 °C 30.2 in /  1022.9 hPa NE 5 mph /  8.0 km/h 12 mph /  19.3 km/h 77 % 0 in /  0.0 mm
09:52 65.1 °F /  18.4 °C 57 °F /  13.9 °C 30.2 in /  1022.9 hPa NE 8 mph /  12.9 km/h 10 mph /  16.1 km/h 75 % 0 in /  0.0 mm
10:02 65.5 °F /  18.6 °C 58.1 °F /  14.5 °C 30.2 in /  1022.9 hPa NNE 8 mph /  12.9 km/h 13 mph /  20.9 km/h 77 % 0 in /  0.0 mm
10:07 65.8 °F /  18.8 °C 58.5 °F /  14.7 °C 30.2 in /  1022.9 hPa NE 2 mph /  3.2 km/h 13 mph /  20.9 km/h 77 % 0 in /  0.0 mm
10:12 66 °F /  18.9 °C 58.3 °F /  14.6 °C 30.2 in /  1022.9 hPa NW 6 mph /  9.7 km/h 9 mph /  14.5 km/h 76 % 0 in /  0.0 mm
10:17 66.4 °F /  19.1 °C 58.3 °F /  14.6 °C 30.2 in /  1022.9 hPa NE 3 mph /  4.8 km/h 9 mph /  14.5 km/h 75 % 0 in /  0.0 mm
10:22 66.4 °F /  19.1 °C 58.3 °F /  14.6 °C 30.2 in /  1022.9 hPa NE 7 mph /  11.3 km/h 11 mph /  17.7 km/h 75 % 0 in /  0.0 mm
10:32 66.9 °F /  19.4 °C 57.9 °F /  14.4 °C 30.2 in /  1022.9 hPa NE 6 mph /  9.7 km/h 11 mph /  17.7 km/h 73 % 0 in /  0.0 mm
10:37 67.3 °F /  19.6 °C 58.6 °F /  14.8 °C 30.2 in /  1022.9 hPa NNE 8 mph /  12.9 km/h 11 mph /  17.7 km/h 74 % 0 in /  0.0 mm
10:42 67.1 °F /  19.5 °C 58.1 °F /  14.5 °C 30.2 in /  1022.6 hPa ENE 6 mph /  9.7 km/h 13 mph /  20.9 km/h 73 % 0 in /  0.0 mm
10:52 67.5 °F /  19.7 °C 58.1 °F /  14.5 °C 30.2 in /  1022.9 hPa NNE 3 mph /  4.8 km/h 13 mph /  20.9 km/h 72 % 0 in /  0.0 mm
11:02 67.8 °F /  19.9 °C 58.5 °F /  14.7 °C 30.2 in /  1022.9 hPa NNE 12 mph /  19.3 km/h 12 mph /  19.3 km/h 72 % 0 in /  0.0 mm
11:12 68.4 °F /  20.2 °C 59 °F /  15.0 °C 30.2 in /  1022.9 hPa NE 4 mph /  6.4 km/h 15 mph /  24.1 km/h 72 % 0 in /  0.0 mm
11:22 68.2 °F /  20.1 °C 58.8 °F /  14.9 °C 30.2 in /  1022.9 hPa ENE 5 mph /  8.0 km/h 12 mph /  19.3 km/h 72 % 0 in /  0.0 mm
11:32 68.4 °F /  20.2 °C 59 °F /  15.0 °C 30.2 in /  1022.6 hPa NNE 10 mph /  16.1 km/h 12 mph /  19.3 km/h 72 % 0 in /  0.0 mm
11:37 68.5 °F /  20.3 °C 59.9 °F /  15.5 °C 30.2 in /  1022.9 hPa NW 2 mph /  3.2 km/h 12 mph /  19.3 km/h 74 % 0 in /  0.0 mm
11:42 68.7 °F /  20.4 °C 59.4 °F /  15.2 °C 30.2 in /  1022.9 hPa NE 7 mph /  11.3 km/h 12 mph /  19.3 km/h 72 % 0 in /  0.0 mm
11:52 69.3 °F /  20.7 °C 60.6 °F /  15.9 °C 30.2 in /  1022.9 hPa East 2 mph /  3.2 km/h 12 mph /  19.3 km/h 74 % 0 in /  0.0 mm
12:02 69.8 °F /  21.0 °C 59.9 °F /  15.5 °C 30.2 in /  1022.9 hPa NE 9 mph /  14.5 km/h 11 mph /  17.7 km/h 71 % 0 in /  0.0 mm
12:12 69.8 °F /  21.0 °C 59.9 °F /  15.5 °C 30.2 in /  1022.9 hPa NE 4 mph /  6.4 km/h 12 mph /  19.3 km/h 71 % 0 in /  0.0 mm
12:17 70.2 °F /  21.2 °C 60.3 °F /  15.7 °C 30.2 in /  1022.9 hPa NNW 4 mph /  6.4 km/h 12 mph /  19.3 km/h 71 % 0 in /  0.0 mm
12:22 70.2 °F /  21.2 °C 59.9 °F /  15.5 °C 30.2 in /  1022.9 hPa NE 5 mph /  8.0 km/h 12 mph /  19.3 km/h 70 % 0 in /  0.0 mm
12:32 71.1 °F /  21.7 °C 60.4 °F /  15.8 °C 30.2 in /  1022.9 hPa NNE 7 mph /  11.3 km/h 10 mph /  16.1 km/h 69 % 0 in /  0.0 mm
12:37 71.1 °F /  21.7 °C 61.2 °F /  16.2 °C 30.2 in /  1022.9 hPa NNE 7 mph /  11.3 km/h 10 mph /  16.1 km/h 71 % 0 in /  0.0 mm
12:42 71.2 °F /  21.8 °C 61 °F /  16.1 °C 30.2 in /  1022.9 hPa NNE 4 mph /  6.4 km/h 11 mph /  17.7 km/h 70 % 0 in /  0.0 mm
12:47 71.2 °F /  21.8 °C 60.1 °F /  15.6 °C 30.2 in /  1022.9 hPa NE 5 mph /  8.0 km/h 11 mph /  17.7 km/h 68 % 0 in /  0.0 mm
12:52 70.5 °F /  21.4 °C 60.3 °F /  15.7 °C 30.2 in /  1022.9 hPa NNE 6 mph /  9.7 km/h 11 mph /  17.7 km/h 70 % 0 in /  0.0 mm
13:02 71.1 °F /  21.7 °C 60.4 °F /  15.8 °C 30.2 in /  1022.6 hPa North 2 mph /  3.2 km/h 12 mph /  19.3 km/h 69 % 0 in /  0.0 mm
13:12 70.9 °F /  21.6 °C 59.7 °F /  15.4 °C 30.2 in /  1022.6 hPa NNE 7 mph /  11.3 km/h 11 mph /  17.7 km/h 68 % 0 in /  0.0 mm
13:22 71.1 °F /  21.7 °C 59.9 °F /  15.5 °C 30.2 in /  1022.2 hPa NNE 2 mph /  3.2 km/h 11 mph /  17.7 km/h 68 % 0 in /  0.0 mm
13:32 71.4 °F /  21.9 °C 59 °F /  15.0 °C 30.2 in /  1022.2 hPa NE 3 mph /  4.8 km/h 11 mph /  17.7 km/h 65 % 0 in /  0.0 mm
13:37 71.8 °F /  22.1 °C 60.3 °F /  15.7 °C 30.2 in /  1022.2 hPa NE 6 mph /  9.7 km/h 11 mph /  17.7 km/h 67 % 0 in /  0.0 mm
13:42 72.1 °F /  22.3 °C 60.6 °F /  15.9 °C 30.2 in /  1022.2 hPa NW 1 mph /  1.6 km/h 11 mph /  17.7 km/h 67 % 0 in /  0.0 mm
13:52 71.8 °F /  22.1 °C 59.7 °F /  15.4 °C 30.2 in /  1022.2 hPa NE 4 mph /  6.4 km/h 9 mph /  14.5 km/h 66 % 0 in /  0.0 mm
14:02 72.3 °F /  22.4 °C 59.9 °F /  15.5 °C 30.2 in /  1022.2 hPa North 8 mph /  12.9 km/h 13 mph /  20.9 km/h 65 % 0 in /  0.0 mm
14:12 72.9 °F /  22.7 °C 59.9 °F /  15.5 °C 30.2 in /  1022.2 hPa NNE 5 mph /  8.0 km/h 13 mph /  20.9 km/h 64 % 0 in /  0.0 mm
14:22 72.3 °F /  22.4 °C 58.1 °F /  14.5 °C 30.2 in /  1022.2 hPa NE 1 mph /  1.6 km/h 10 mph /  16.1 km/h 61 % 0 in /  0.0 mm
14:32 72.7 °F /  22.6 °C 60.3 °F /  15.7 °C 30.2 in /  1022.2 hPa ENE 6 mph /  9.7 km/h 9 mph /  14.5 km/h 65 % 0 in /  0.0 mm
14:37 72.7 °F /  22.6 °C 59.4 °F /  15.2 °C 30.2 in /  1022.2 hPa ENE 7 mph /  11.3 km/h 9 mph /  14.5 km/h 63 % 0 in /  0.0 mm
14:42 72.3 °F /  22.4 °C 59.9 °F /  15.5 °C 30.2 in /  1022.2 hPa NE 5 mph /  8.0 km/h 9 mph /  14.5 km/h 65 % 0 in /  0.0 mm
14:47 72 °F /  22.2 °C 59.9 °F /  15.5 °C 30.2 in /  1022.2 hPa NNE 8 mph /  12.9 km/h 9 mph /  14.5 km/h 66 % 0 in /  0.0 mm
14:57 72.3 °F /  22.4 °C 59.9 °F /  15.5 °C 30.2 in /  1022.2 hPa NE 2 mph /  3.2 km/h 8 mph /  12.9 km/h 65 % 0 in /  0.0 mm
15:02 72.1 °F /  22.3 °C 60.1 °F /  15.6 °C 30.2 in /  1022.2 hPa NNE 2 mph /  3.2 km/h 8 mph /  12.9 km/h 66 % 0 in /  0.0 mm
15:07 72.1 °F /  22.3 °C 60.1 °F /  15.6 °C 30.2 in /  1021.9 hPa NNE 1 mph /  1.6 km/h 9 mph /  14.5 km/h 66 % 0 in /  0.0 mm
15:12 72.3 °F /  22.4 °C 60.8 °F /  16.0 °C 30.2 in /  1021.9 hPa NE 4 mph /  6.4 km/h 9 mph /  14.5 km/h 67 % 0 in /  0.0 mm
15:17 72.7 °F /  22.6 °C 60.3 °F /  15.7 °C 30.2 in /  1021.9 hPa NNE 7 mph /  11.3 km/h 9 mph /  14.5 km/h 65 % 0 in /  0.0 mm
15:22 72.3 °F /  22.4 °C 59.9 °F /  15.5 °C 30.2 in /  1021.9 hPa North 5 mph /  8.0 km/h 10 mph /  16.1 km/h 65 % 0 in /  0.0 mm
15:27 72.1 °F /  22.3 °C 60.1 °F /  15.6 °C 30.2 in /  1021.9 hPa NE 5 mph /  8.0 km/h 10 mph /  16.1 km/h 66 % 0 in /  0.0 mm
15:37 72 °F /  22.2 °C 60.4 °F /  15.8 °C 30.2 in /  1021.9 hPa NE 4 mph /  6.4 km/h 11 mph /  17.7 km/h 67 % 0 in /  0.0 mm
15:42 72 °F /  22.2 °C 59.5 °F /  15.3 °C 30.2 in /  1021.9 hPa NE 9 mph /  14.5 km/h 11 mph /  17.7 km/h 65 % 0 in /  0.0 mm
15:47 72 °F /  22.2 °C 59.2 °F /  15.1 °C 30.2 in /  1021.6 hPa NE 5 mph /  8.0 km/h 11 mph /  17.7 km/h 64 % 0 in /  0.0 mm
15:52 72.3 °F /  22.4 °C 59 °F /  15.0 °C 30.2 in /  1021.6 hPa ENE 3 mph /  4.8 km/h 11 mph /  17.7 km/h 63 % 0 in /  0.0 mm
15:57 72.3 °F /  22.4 °C 59.9 °F /  15.5 °C 30.2 in /  1021.6 hPa ENE 3 mph /  4.8 km/h 11 mph /  17.7 km/h 65 % 0 in /  0.0 mm
16:02 72.7 °F /  22.6 °C 60.3 °F /  15.7 °C 30.2 in /  1021.6 hPa ESE 3 mph /  4.8 km/h 9 mph /  14.5 km/h 65 % 0 in /  0.0 mm
16:12 72.9 °F /  22.7 °C 60.8 °F /  16.0 °C 30.2 in /  1021.6 hPa North 2 mph /  3.2 km/h 8 mph /  12.9 km/h 66 % 0 in /  0.0 mm
16:22 73.2 °F /  22.9 °C 60.8 °F /  16.0 °C 30.2 in /  1021.6 hPa North 3 mph /  4.8 km/h 9 mph /  14.5 km/h 65 % 0 in /  0.0 mm
16:27 73.4 °F /  23.0 °C 60.1 °F /  15.6 °C 30.2 in /  1021.6 hPa NE 5 mph /  8.0 km/h 9 mph /  14.5 km/h 63 % 0 in /  0.0 mm
16:32 73.2 °F /  22.9 °C 60.8 °F /  16.0 °C 30.2 in /  1021.6 hPa NNE 4 mph /  6.4 km/h 9 mph /  14.5 km/h 65 % 0 in /  0.0 mm
16:37 73.2 °F /  22.9 °C 60.3 °F /  15.7 °C 30.2 in /  1021.6 hPa NNE 4 mph /  6.4 km/h 10 mph /  16.1 km/h 64 % 0 in /  0.0 mm
16:42 73.6 °F /  23.1 °C 60.3 °F /  15.7 °C 30.2 in /  1021.6 hPa Calm   10 mph /  16.1 km/h 63 % 0 in /  0.0 mm
16:52 73.6 °F /  23.1 °C 59.7 °F /  15.4 °C 30.2 in /  1021.2 hPa NNE 7 mph /  11.3 km/h 10 mph /  16.1 km/h 62 % 0 in /  0.0 mm
16:57 73.4 °F /  23.0 °C 60.4 °F /  15.8 °C 30.2 in /  1021.2 hPa ENE 5 mph /  8.0 km/h 9 mph /  14.5 km/h 64 % 0 in /  0.0 mm
17:02 72.9 °F /  22.7 °C 59.9 °F /  15.5 °C 30.2 in /  1021.2 hPa North 2 mph /  3.2 km/h 8 mph /  12.9 km/h 64 % 0 in /  0.0 mm
17:12 72.3 °F /  22.4 °C 60.3 °F /  15.7 °C 30.2 in /  1021.2 hPa NNE 4 mph /  6.4 km/h 8 mph /  12.9 km/h 66 % 0 in /  0.0 mm
17:17 72.1 °F /  22.3 °C 60.1 °F /  15.6 °C 30.2 in /  1021.2 hPa NE 4 mph /  6.4 km/h 9 mph /  14.5 km/h 66 % 0 in /  0.0 mm
17:22 72.1 °F /  22.3 °C 59.7 °F /  15.4 °C 30.2 in /  1021.6 hPa NNE 1 mph /  1.6 km/h 9 mph /  14.5 km/h 65 % 0 in /  0.0 mm
17:32 72.1 °F /  22.3 °C 60.1 °F /  15.6 °C 30.2 in /  1021.2 hPa ENE 2 mph /  3.2 km/h 6 mph /  9.7 km/h 66 % 0 in /  0.0 mm
17:37 72 °F /  22.2 °C 60.4 °F /  15.8 °C 30.2 in /  1021.2 hPa NE 4 mph /  6.4 km/h 6 mph /  9.7 km/h 67 % 0 in /  0.0 mm
17:42 71.6 °F /  22.0 °C 60.4 °F /  15.8 °C 30.2 in /  1021.2 hPa NE 3 mph /  4.8 km/h 6 mph /  9.7 km/h 68 % 0 in /  0.0 mm
17:47 71.4 °F /  21.9 °C 60.3 °F /  15.7 °C 30.2 in /  1021.2 hPa ENE 5 mph /  8.0 km/h 6 mph /  9.7 km/h 68 % 0 in /  0.0 mm
17:52 71.1 °F /  21.7 °C 60.4 °F /  15.8 °C 30.2 in /  1021.2 hPa NNE 4 mph /  6.4 km/h 7 mph /  11.3 km/h 69 % 0 in /  0.0 mm
17:57 70.9 °F /  21.6 °C 60.3 °F /  15.7 °C 30.2 in /  1021.2 hPa NE 3 mph /  4.8 km/h 8 mph /  12.9 km/h 69 % 0 in /  0.0 mm
18:02 70.9 °F /  21.6 °C 59.7 °F /  15.4 °C 30.2 in /  1020.9 hPa NE 2 mph /  3.2 km/h 8 mph /  12.9 km/h 68 % 0 in /  0.0 mm
18:07 70.5 °F /  21.4 °C 59.9 °F /  15.5 °C 30.2 in /  1020.9 hPa NNE 5 mph /  8.0 km/h 8 mph /  12.9 km/h 69 % 0 in /  0.0 mm
18:17 69.6 °F /  20.9 °C 60.6 °F /  15.9 °C 30.2 in /  1020.9 hPa NNE 6 mph /  9.7 km/h 8 mph /  12.9 km/h 73 % 0 in /  0.0 mm
18:27 68.9 °F /  20.5 °C 60.6 °F /  15.9 °C 30.2 in /  1020.9 hPa NE 4 mph /  6.4 km/h 9 mph /  14.5 km/h 75 % 0 in /  0.0 mm
18:32 68.7 °F /  20.4 °C 61.2 °F /  16.2 °C 30.2 in /  1020.9 hPa NE 4 mph /  6.4 km/h 9 mph /  14.5 km/h 77 % 0 in /  0.0 mm
18:42 68.4 °F /  20.2 °C 61.5 °F /  16.4 °C 30.2 in /  1020.9 hPa North 2 mph /  3.2 km/h 8 mph /  12.9 km/h 79 % 0.01 in /  0.3 mm
18:52 68.2 °F /  20.1 °C 62.1 °F /  16.7 °C 30.2 in /  1020.9 hPa Calm   6 mph /  9.7 km/h 81 % 0.01 in /  0.3 mm
19:02 67.8 °F /  19.9 °C 62.1 °F /  16.7 °C 30.2 in /  1020.9 hPa NNE 2 mph /  3.2 km/h 5 mph /  8.0 km/h 82 % 0.02 in /  0.5 mm
19:12 67.8 °F /  19.9 °C 62.1 °F /  16.7 °C 30.1 in /  1020.5 hPa North 1 mph /  1.6 km/h 4 mph /  6.4 km/h 82 % 0.02 in /  0.5 mm
19:17 67.6 °F /  19.8 °C 61.9 °F /  16.6 °C 30.2 in /  1020.9 hPa NE 3 mph /  4.8 km/h 4 mph /  6.4 km/h 82 % 0.02 in /  0.5 mm
19:22 67.6 °F /  19.8 °C 62.2 °F /  16.8 °C 30.2 in /  1020.9 hPa NNE 2 mph /  3.2 km/h 3 mph /  4.8 km/h 83 % 0.02 in /  0.5 mm
19:32 67.5 °F /  19.7 °C 62.4 °F /  16.9 °C 30.2 in /  1020.9 hPa NNE 1 mph /  1.6 km/h 4 mph /  6.4 km/h 84 % 0.02 in /  0.5 mm
19:37 67.5 °F /  19.7 °C 62.1 °F /  16.7 °C 30.2 in /  1020.9 hPa NNE 3 mph /  4.8 km/h 4 mph /  6.4 km/h 83 % 0.01 in /  0.3 mm
19:42 67.5 °F /  19.7 °C 62.4 °F /  16.9 °C 30.2 in /  1020.9 hPa NE 1 mph /  1.6 km/h 4 mph /  6.4 km/h 84 % 0.01 in /  0.3 mm
19:52 67.3 °F /  19.6 °C 62.2 °F /  16.8 °C 30.2 in /  1020.9 hPa Calm   4 mph /  6.4 km/h 84 % 0 in /  0.0 mm
19:57 67.3 °F /  19.6 °C 61.9 °F /  16.6 °C 30.2 in /  1020.9 hPa NNE 1 mph /  1.6 km/h 3 mph /  4.8 km/h 83 % 0 in /  0.0 mm
20:02 67.5 °F /  19.7 °C 62.1 °F /  16.7 °C 30.2 in /  1020.9 hPa North 1 mph /  1.6 km/h 3 mph /  4.8 km/h 83 % 0 in /  0.0 mm
20:12 67.5 °F /  19.7 °C 62.1 °F /  16.7 °C 30.2 in /  1020.9 hPa Calm   3 mph /  4.8 km/h 83 % 0 in /  0.0 mm
20:17 67.6 °F /  19.8 °C 62.2 °F /  16.8 °C 30.2 in /  1020.9 hPa North 1 mph /  1.6 km/h 3 mph /  4.8 km/h 83 % 0 in /  0.0 mm
20:22 67.6 °F /  19.8 °C 62.2 °F /  16.8 °C 30.2 in /  1020.9 hPa Calm   3 mph /  4.8 km/h 83 % 0 in /  0.0 mm
20:32 67.6 °F /  19.8 °C 62.2 °F /  16.8 °C 30.2 in /  1020.9 hPa North 2 mph /  3.2 km/h 2 mph /  3.2 km/h 83 % 0 in /  0.0 mm
20:42 67.6 °F /  19.8 °C 61.9 °F /  16.6 °C 30.2 in /  1021.2 hPa Calm   2 mph /  3.2 km/h 82 % 0 in /  0.0 mm
20:47 67.6 °F /  19.8 °C 61.9 °F /  16.6 °C 30.2 in /  1020.9 hPa Calm   3 mph /  4.8 km/h 82 % 0 in /  0.0 mm
20:52 67.6 °F /  19.8 °C 61.9 °F /  16.6 °C 30.2 in /  1021.2 hPa Calm   3 mph /  4.8 km/h 82 % 0 in /  0.0 mm
20:57 67.6 °F /  19.8 °C 61.5 °F /  16.4 °C 30.2 in /  1021.2 hPa Calm   1 mph /  1.6 km/h 81 % 0 in /  0.0 mm
21:02 67.8 °F /  19.9 °C 61.7 °F /  16.5 °C 30.2 in /  1021.2 hPa Calm   1 mph /  1.6 km/h 81 % 0 in /  0.0 mm
21:12 68.2 °F /  20.1 °C 62.1 °F /  16.7 °C 30.2 in /  1021.2 hPa Calm   1 mph /  1.6 km/h 81 % 0 in /  0.0 mm
21:17 67.8 °F /  19.9 °C 61.3 °F /  16.3 °C 30.2 in /  1021.2 hPa Calm   1 mph /  1.6 km/h 80 % 0 in /  0.0 mm
21:22 67.6 °F /  19.8 °C 61.2 °F /  16.2 °C 30.2 in /  1021.2 hPa Calm   1 mph /  1.6 km/h 80 % 0 in /  0.0 mm
21:27 67.3 °F /  19.6 °C 61.2 °F /  16.2 °C 30.2 in /  1021.2 hPa Calm     81 % 0 in /  0.0 mm
21:32 66.9 °F /  19.4 °C 61 °F /  16.1 °C 30.2 in /  1021.6 hPa Calm     81 % 0 in /  0.0 mm
21:42 66.6 °F /  19.2 °C 60.6 °F /  15.9 °C 30.2 in /  1021.6 hPa Calm     81 % 0 in /  0.0 mm
21:47 66.4 °F /  19.1 °C 60.8 °F /  16.0 °C 30.2 in /  1021.6 hPa Calm     82 % 0 in /  0.0 mm
21:57 65.7 °F /  18.7 °C 60.6 °F /  15.9 °C 30.2 in /  1021.6 hPa Calm     84 % 0 in /  0.0 mm
22:02 65.1 °F /  18.4 °C 60.4 °F /  15.8 °C 30.2 in /  1021.6 hPa Calm     85 % 0 in /  0.0 mm
22:12 64.8 °F /  18.2 °C 60.1 °F /  15.6 °C 30.2 in /  1021.9 hPa Calm     85 % 0 in /  0.0 mm
22:22 64.8 °F /  18.2 °C 59.9 °F /  15.5 °C 30.2 in /  1021.6 hPa Calm   1 mph /  1.6 km/h 84 % 0 in /  0.0 mm
22:32 64.2 °F /  17.9 °C 59.5 °F /  15.3 °C 30.2 in /  1021.6 hPa NE 2 mph /  3.2 km/h 4 mph /  6.4 km/h 85 % 0 in /  0.0 mm
22:42 64 °F /  17.8 °C 59.4 °F /  15.2 °C 30.2 in /  1021.9 hPa NE 1 mph /  1.6 km/h 4 mph /  6.4 km/h 85 % 0 in /  0.0 mm
22:52 64.6 °F /  18.1 °C 59.4 °F /  15.2 °C 30.2 in /  1021.9 hPa Calm   3 mph /  4.8 km/h 83 % 0 in /  0.0 mm
22:57 64.2 °F /  17.9 °C 59.4 °F /  15.2 °C 30.2 in /  1021.9 hPa Calm   3 mph /  4.8 km/h 84 % 0 in /  0.0 mm
23:02 64 °F /  17.8 °C 59.2 °F /  15.1 °C 30.2 in /  1021.9 hPa Calm   2 mph /  3.2 km/h 84 % 0 in /  0.0 mm
23:12 63.9 °F /  17.7 °C 59 °F /  15.0 °C 30.2 in /  1021.9 hPa Calm   2 mph /  3.2 km/h 84 % 0 in /  0.0 mm
23:17 63.7 °F /  17.6 °C 58.8 °F /  14.9 °C 30.2 in /  1021.9 hPa Calm   1 mph /  1.6 km/h 84 % 0 in /  0.0 mm
23:22 63.9 °F /  17.7 °C 59 °F /  15.0 °C 30.2 in /  1021.9 hPa NNE 1 mph /  1.6 km/h 1 mph /  1.6 km/h 84 % 0 in /  0.0 mm
23:27 63.9 °F /  17.7 °C 59 °F /  15.0 °C 30.2 in /  1021.9 hPa North 1 mph /  1.6 km/h 2 mph /  3.2 km/h 84 % 0 in /  0.0 mm
23:32 63.7 °F /  17.6 °C 58.8 °F /  14.9 °C 30.2 in /  1021.9 hPa North 1 mph /  1.6 km/h 2 mph /  3.2 km/h 84 % 0 in /  0.0 mm
23:37 63.3 °F /  17.4 °C 58.8 °F /  14.9 °C 30.2 in /  1021.9 hPa North 1 mph /  1.6 km/h 2 mph /  3.2 km/h 85 % 0 in /  0.0 mm
23:42 63.1 °F /  17.3 °C 58.6 °F /  14.8 °C 30.2 in /  1021.9 hPa Calm   2 mph /  3.2 km/h 85 % 0 in /  0.0 mm
23:47 63.1 °F /  17.3 °C 58.6 °F /  14.8 °C 30.2 in /  1021.9 hPa Calm   3 mph /  4.8 km/h 85 % 0 in /  0.0 mm
23:52 63.1 °F /  17.3 °C 58.6 °F /  14.8 °C 30.2 in /  1021.9 hPa Calm   3 mph /  4.8 km/h 85 % 0 in /  0.0 mm
Meteo18
Compliments of Weather Underground - 4 mb

Script developed by  Jim McMurry - jmcmurry@mwt.net Adapted for the template by  Wim van der Kuil - Leuven-Template.eu

You find our weather info also at:

European Weather Network

Weather Underground

Equipment we use:

Weather-station
Davis Vue

Weather-program
Meteohub

Weather-server
Raspberry PI 2 B+

Provider
1 and 1

Davis Vue

Meteohub

Raspberry PI 2 B+

1 and 1